Air Sicilia Virtual Airways - Route

Air Sicilia Virtual Airways - SIC195L

( IT ) LICT
Vincenzo Florio Airport Trapani-Birgi
TRAPANI ( TPS )
plane_to ( IT ) LICB
Comiso Airport
COMISO ( CIY )
IVAO VFR ITALY 2018 - LEG: 4

AIRPORT NEAR NAVIGATION AIDS

Type Name Frequency
VORTAC Trapani 108800 KHZ
NDB Trapani 318 KHZ

METAR / TAF
LICT 191555Z 31004KT 260V020 9999 FEW025 19/15 Q1011

RUNWAY INFORMATION

Runway Runway length Runway width Runway elevation Runway displaced threshold Runway heading
13 8852 148 10 0 128
31 8852 148 24 820 308

AIRPORT FREQUENCIES

Type Name Frequency
APP APP 36.23 MHZ
APP APP 119.95 MHZ
GND GND 39.685 MHZ
TWR TWR 119.7 MHZ

AIRPORT NEAR NAVIGATION AIDS

Type Name Frequency

METAR / TAF
LICB 191550Z 26011KT CAVOK 19/12 Q1010

RUNWAY INFORMATION

Runway Runway length Runway width Runway elevation Runway displaced threshold Runway heading
05 8070 148 0 0 0
23 8070 148 0 0 0

AIRPORT FREQUENCIES

Type Name Frequency

Flightplan

via SCIACCA - CALTANISSETTA - ENNA - SIRACUSA - RAGUSA

Air Sicilia Virtual Airways Fleets

AVAILABLE AIRCRAFTS for route at this time in Vincenzo Florio Airport Trapani-Birgi
BE58 - Beechcraft Baron 58
( US ) Beechcraft

Aircraft in fleet: 7

C172 - Cessna 172 Skyhawk
( US ) Cessna

Aircraft in fleet: 13

C208 - Cessna 208 Caravan
( US ) Cessna

Aircraft in fleet: 13

PC12 - Pilatus PC12 Eagle
( CH ) Pilatus

Aircraft in fleet: 4

185 NM

Distance in nautical miles.

€ 200,00

Ticket price for this flight.

Nr. 4

Leg



12-11-2018
Aerosoft Airport Rio de Janeiro International V2.0 XP

L'Aeroporto Internazionale di Rio de Janeiro-Galeão (IATA: GIG, ICAO: SBGL), costruito nel 1952 nel quartiere di Ilha do Governador ed intitolato al musicista Antônio Carlos Jobim, è il principale aeroporto internazio ....


15-10-2018
Aerosoft A320 Family professional

La gamma di aeromobili A320 è una delle più comuni nei cieli. Questi aerei di linea a doppio-getto a corto e medio raggio si sono dimostrati convenienti, affidabili e prontamente disponibili, rendendoli le opzioni migl ....


10-10-2018
Motore critico ( Critical Engine )

Il motore critico di un velivolo ad ala fissa multi-motore è il motore che, in caso di guasto, influirebbe negativamente sulle prestazioni o sulla capacità di manovra di un aereo. Sui velivoli ad elica, vi è un ....


04-10-2018
Aerosoft Dortmund XP

Scopri il centro della regione della Ruhr su XPlane 11 - lo scenario Dortmund XP è una ricostruzione completa della città di Dortmund per il simulatore di volo targato Laminar. Oltre all'intera area urbana di Dortmu ....


07-08-2018
Aerosoft Professional Flight Planner PFPX

PFPX - Professional Flight Planner X - è un nuovo ed innovativo strumento di pianificazione del volo sviluppato da piloti e dispatcher del mondo reale. È un'aggiunta preziosa e realistica alla tua esperienza di simulaz ....